sensor_id;sensor_type;location;lat;lon;timestamp;pressure;altitude;pressure_sealevel;temperature;humidity
36222;BME280;22266;52.340;4.962;2022-10-30T00:00:47;101596.66;;;17.08;71.18
36222;BME280;22266;52.340;4.962;2022-10-30T00:03:14;101598.78;;;17.05;71.34
36222;BME280;22266;52.340;4.962;2022-10-30T00:05:42;101604.22;;;17.05;70.88
36222;BME280;22266;52.340;4.962;2022-10-30T00:08:11;101601.09;;;17.02;71.09
36222;BME280;22266;52.340;4.962;2022-10-30T00:10:38;101598.38;;;17.02;71.48
36222;BME280;22266;52.340;4.962;2022-10-30T00:13:04;101597.31;;;17.03;71.22
36222;BME280;22266;52.340;4.962;2022-10-30T00:15:32;101598.97;;;17.04;71.42
36222;BME280;22266;52.340;4.962;2022-10-30T00:17:58;101595.66;;;17.02;71.14
36222;BME280;22266;52.340;4.962;2022-10-30T00:20:26;101600.25;;;17.01;71.46
36222;BME280;22266;52.340;4.962;2022-10-30T00:22:52;101606.75;;;17.00;71.63
36222;BME280;22266;52.340;4.962;2022-10-30T00:25:18;101597.97;;;16.98;71.40
36222;BME280;22266;52.340;4.962;2022-10-30T00:27:45;101600.28;;;16.95;71.69
36222;BME280;22266;52.340;4.962;2022-10-30T00:30:12;101607.81;;;16.93;71.32
36222;BME280;22266;52.340;4.962;2022-10-30T00:32:41;101605.56;;;16.90;71.60
36222;BME280;22266;52.340;4.962;2022-10-30T00:35:09;101597.81;;;16.87;71.63
36222;BME280;22266;52.340;4.962;2022-10-30T00:37:37;101615.19;;;16.86;71.65
36222;BME280;22266;52.340;4.962;2022-10-30T00:40:04;101608.53;;;16.82;71.79
36222;BME280;22266;52.340;4.962;2022-10-30T00:42:31;101617.72;;;16.80;72.08
36222;BME280;22266;52.340;4.962;2022-10-30T00:44:58;101617.13;;;16.78;71.88
36222;BME280;22266;52.340;4.962;2022-10-30T00:47:32;101612.50;;;16.79;71.98
36222;BME280;22266;52.340;4.962;2022-10-30T00:50:08;101612.28;;;16.80;72.00
36222;BME280;22266;52.340;4.962;2022-10-30T00:52:39;101614.41;;;16.78;71.93
36222;BME280;22266;52.340;4.962;2022-10-30T00:55:13;101615.66;;;16.76;72.00
36222;BME280;22266;52.340;4.962;2022-10-30T00:57:41;101621.09;;;16.76;71.82
36222;BME280;22266;52.340;4.962;2022-10-30T01:00:10;101619.44;;;16.75;72.09
36222;BME280;22266;52.340;4.962;2022-10-30T01:02:38;101618.78;;;16.73;72.15
36222;BME280;22266;52.340;4.962;2022-10-30T01:05:05;101617.31;;;16.70;72.05
36222;BME280;22266;52.340;4.962;2022-10-30T01:07:32;101616.91;;;16.67;72.09
36222;BME280;22266;52.340;4.962;2022-10-30T01:09:58;101626.13;;;16.66;72.38
36222;BME280;22266;52.340;4.962;2022-10-30T01:12:25;101623.63;;;16.64;72.41
36222;BME280;22266;52.340;4.962;2022-10-30T01:14:54;101616.94;;;16.60;72.16
36222;BME280;22266;52.340;4.962;2022-10-30T01:17:51;101625.75;;;16.55;72.35
36222;BME280;22266;52.340;4.962;2022-10-30T01:23:12;101622.22;;;16.48;72.75
36222;BME280;22266;52.340;4.962;2022-10-30T01:25:51;101623.50;;;16.46;72.68
36222;BME280;22266;52.340;4.962;2022-10-30T01:31:43;101639.16;;;16.44;72.71
36222;BME280;22266;52.340;4.962;2022-10-30T01:34:17;101637.72;;;16.41;72.94
36222;BME280;22266;52.340;4.962;2022-10-30T01:36:49;101642.09;;;16.42;73.11
36222;BME280;22266;52.340;4.962;2022-10-30T01:39:23;101635.59;;;16.43;73.19
36222;BME280;22266;52.340;4.962;2022-10-30T01:41:50;101644.59;;;16.44;72.62
36222;BME280;22266;52.340;4.962;2022-10-30T01:44:40;101639.38;;;16.42;73.08
36222;BME280;22266;52.340;4.962;2022-10-30T01:47:32;101635.59;;;16.43;72.97
36222;BME280;22266;52.340;4.962;2022-10-30T01:52:59;101636.25;;;16.39;72.88
36222;BME280;22266;52.340;4.962;2022-10-30T01:58:13;101640.00;;;16.44;73.05
36222;BME280;22266;52.340;4.962;2022-10-30T02:00:45;101636.44;;;16.44;72.87
36222;BME280;22266;52.340;4.962;2022-10-30T02:03:13;101641.25;;;16.42;72.96
36222;BME280;22266;52.340;4.962;2022-10-30T02:05:51;101640.44;;;16.41;72.98
36222;BME280;22266;52.340;4.962;2022-10-30T02:08:20;101639.81;;;16.39;72.99
36222;BME280;22266;52.340;4.962;2022-10-30T02:10:50;101644.41;;;16.39;72.88
36222;BME280;22266;52.340;4.962;2022-10-30T02:13:28;101644.41;;;16.39;72.90
36222;BME280;22266;52.340;4.962;2022-10-30T02:15:56;101640.03;;;16.38;72.93
36222;BME280;22266;52.340;4.962;2022-10-30T02:18:24;101642.09;;;16.36;73.20
36222;BME280;22266;52.340;4.962;2022-10-30T02:20:50;101644.22;;;16.34;73.28
36222;BME280;22266;52.340;4.962;2022-10-30T02:23:17;101645.25;;;16.32;73.23
36222;BME280;22266;52.340;4.962;2022-10-30T02:25:44;101646.53;;;16.30;72.91
36222;BME280;22266;52.340;4.962;2022-10-30T02:28:11;101655.09;;;16.27;72.92
36222;BME280;22266;52.340;4.962;2022-10-30T02:30:39;101649.25;;;16.23;73.28
36222;BME280;22266;52.340;4.962;2022-10-30T02:33:06;101653.00;;;16.22;73.02
36222;BME280;22266;52.340;4.962;2022-10-30T02:35:33;101652.38;;;16.20;73.11
36222;BME280;22266;52.340;4.962;2022-10-30T02:38:01;101648.00;;;16.19;73.37
36222;BME280;22266;52.340;4.962;2022-10-30T02:40:28;101655.31;;;16.19;73.09
36222;BME280;22266;52.340;4.962;2022-10-30T02:42:55;101640.91;;;16.18;73.49
36222;BME280;22266;52.340;4.962;2022-10-30T02:45:21;101649.28;;;16.17;73.04
36222;BME280;22266;52.340;4.962;2022-10-30T02:47:48;101652.19;;;16.15;73.41
36222;BME280;22266;52.340;4.962;2022-10-30T02:50:15;101656.38;;;16.11;73.46
36222;BME280;22266;52.340;4.962;2022-10-30T02:52:42;101654.06;;;16.08;73.41
36222;BME280;22266;52.340;4.962;2022-10-30T02:55:08;101661.19;;;16.09;73.67
36222;BME280;22266;52.340;4.962;2022-10-30T02:57:36;101657.63;;;16.09;73.56
36222;BME280;22266;52.340;4.962;2022-10-30T03:00:03;101661.19;;;16.09;73.74
36222;BME280;22266;52.340;4.962;2022-10-30T03:02:30;101663.06;;;16.09;73.66
36222;BME280;22266;52.340;4.962;2022-10-30T03:04:56;101661.81;;;16.04;73.22
36222;BME280;22266;52.340;4.962;2022-10-30T03:07:24;101668.50;;;16.02;73.53
36222;BME280;22266;52.340;4.962;2022-10-30T03:09:50;101665.38;;;15.98;74.03
36222;BME280;22266;52.340;4.962;2022-10-30T03:12:17;101662.88;;;15.97;73.68
36222;BME280;22266;52.340;4.962;2022-10-30T03:14:44;101665.38;;;15.98;73.85
36222;BME280;22266;52.340;4.962;2022-10-30T03:17:10;101669.97;;;15.98;73.91
36222;BME280;22266;52.340;4.962;2022-10-30T03:19:37;101660.75;;;15.99;73.91
36222;BME280;22266;52.340;4.962;2022-10-30T03:22:07;101662.66;;;15.98;73.77
36222;BME280;22266;52.340;4.962;2022-10-30T03:24:35;101658.88;;;15.99;74.01
36222;BME280;22266;52.340;4.962;2022-10-30T03:27:03;101650.94;;;15.98;73.53
36222;BME280;22266;52.340;4.962;2022-10-30T03:29:30;101660.78;;;15.92;73.79
36222;BME280;22266;52.340;4.962;2022-10-30T03:31:56;101658.91;;;15.93;73.79
36222;BME280;22266;52.340;4.962;2022-10-30T03:34:28;101649.94;;;15.92;73.97
36222;BME280;22266;52.340;4.962;2022-10-30T03:36:57;101649.06;;;15.92;74.17
36222;BME280;22266;52.340;4.962;2022-10-30T03:39:24;101644.69;;;15.91;74.25
36222;BME280;22266;52.340;4.962;2022-10-30T03:41:50;101645.50;;;15.91;73.88
36222;BME280;22266;52.340;4.962;2022-10-30T03:44:17;101645.09;;;15.88;73.82
36222;BME280;22266;52.340;4.962;2022-10-30T03:46:43;101634.69;;;15.85;73.80
36222;BME280;22266;52.340;4.962;2022-10-30T03:49:35;101633.44;;;15.80;73.88
36222;BME280;22266;52.340;4.962;2022-10-30T03:52:07;101637.59;;;15.76;73.79
36222;BME280;22266;52.340;4.962;2022-10-30T03:54:34;101643.44;;;15.73;74.05
36222;BME280;22266;52.340;4.962;2022-10-30T03:57:00;101657.44;;;15.70;74.07
36222;BME280;22266;52.340;4.962;2022-10-30T03:59:33;101652.63;;;15.66;73.97
36222;BME280;22266;52.340;4.962;2022-10-30T04:02:16;101636.72;;;15.63;74.44
36222;BME280;22266;52.340;4.962;2022-10-30T04:04:42;101643.41;;;15.60;73.97
36222;BME280;22266;52.340;4.962;2022-10-30T04:07:09;101648.84;;;15.60;74.19
36222;BME280;22266;52.340;4.962;2022-10-30T04:09:36;101641.13;;;15.57;74.34
36222;BME280;22266;52.340;4.962;2022-10-30T04:12:03;101639.63;;;15.54;73.98
36222;BME280;22266;52.340;4.962;2022-10-30T04:14:30;101642.56;;;15.53;74.34
36222;BME280;22266;52.340;4.962;2022-10-30T04:16:57;101635.47;;;15.52;74.47
36222;BME280;22266;52.340;4.962;2022-10-30T04:19:23;101639.22;;;15.51;74.21
36222;BME280;22266;52.340;4.962;2022-10-30T04:21:50;101647.34;;;15.51;74.16
36222;BME280;22266;52.340;4.962;2022-10-30T04:24:17;101653.00;;;15.49;74.65
36222;BME280;22266;52.340;4.962;2022-10-30T04:26:47;101649.03;;;15.45;74.25
36222;BME280;22266;52.340;4.962;2022-10-30T04:29:13;101649.25;;;15.44;74.57
36222;BME280;22266;52.340;4.962;2022-10-30T04:31:40;101650.25;;;15.43;74.59
36222;BME280;22266;52.340;4.962;2022-10-30T04:34:07;101655.91;;;15.41;74.47
36222;BME280;22266;52.340;4.962;2022-10-30T04:36:33;101648.00;;;15.40;74.45
36222;BME280;22266;52.340;4.962;2022-10-30T04:39:00;101654.25;;;15.40;74.53
36222;BME280;22266;52.340;4.962;2022-10-30T04:41:28;101648.00;;;15.40;74.76
36222;BME280;22266;52.340;4.962;2022-10-30T04:44:01;101644.63;;;15.38;74.69
36222;BME280;22266;52.340;4.962;2022-10-30T04:46:30;101654.66;;;15.37;74.50
36222;BME280;22266;52.340;4.962;2022-10-30T04:49:04;101656.72;;;15.35;74.91
36222;BME280;22266;52.340;4.962;2022-10-30T04:51:30;101654.22;;;15.33;74.84
36222;BME280;22266;52.340;4.962;2022-10-30T04:53:56;101653.41;;;15.33;74.52
36222;BME280;22266;52.340;4.962;2022-10-30T04:56:25;101650.69;;;15.33;74.59
36222;BME280;22266;52.340;4.962;2022-10-30T04:58:51;101647.31;;;15.31;74.92
36222;BME280;22266;52.340;4.962;2022-10-30T05:01:18;101644.81;;;15.29;74.51
36222;BME280;22266;52.340;4.962;2022-10-30T05:03:45;101646.06;;;15.27;74.73
36222;BME280;22266;52.340;4.962;2022-10-30T05:06:24;101647.94;;;15.26;74.63
36222;BME280;22266;52.340;4.962;2022-10-30T05:08:51;101634.81;;;15.23;74.78
36222;BME280;22266;52.340;4.962;2022-10-30T05:11:27;101632.09;;;15.23;74.51
36222;BME280;22266;52.340;4.962;2022-10-30T05:13:54;101628.75;;;15.21;75.14
36222;BME280;22266;52.340;4.962;2022-10-30T05:16:21;101624.97;;;15.22;74.94
36222;BME280;22266;52.340;4.962;2022-10-30T05:18:49;101619.56;;;15.22;75.15
36222;BME280;22266;52.340;4.962;2022-10-30T05:21:16;101626.03;;;15.21;75.00
36222;BME280;22266;52.340;4.962;2022-10-30T05:23:42;101624.38;;;15.20;75.11
36222;BME280;22266;52.340;4.962;2022-10-30T05:26:08;101617.91;;;15.21;75.20
36222;BME280;22266;52.340;4.962;2022-10-30T05:28:35;101624.38;;;15.20;74.98
36222;BME280;22266;52.340;4.962;2022-10-30T05:31:03;101638.75;;;15.21;75.39
36222;BME280;22266;52.340;4.962;2022-10-30T05:33:52;101638.97;;;15.19;75.27
36222;BME280;22266;52.340;4.962;2022-10-30T05:36:20;101643.34;;;15.20;74.98
36222;BME280;22266;52.340;4.962;2022-10-30T05:38:46;101636.25;;;15.19;75.42
36222;BME280;22266;52.340;4.962;2022-10-30T05:41:21;101635.41;;;15.19;75.33
36222;BME280;22266;52.340;4.962;2022-10-30T05:43:48;101632.91;;;15.17;75.37
36222;BME280;22266;52.340;4.962;2022-10-30T05:46:15;101631.25;;;15.16;75.26
36222;BME280;22266;52.340;4.962;2022-10-30T05:48:41;101637.91;;;15.14;74.97
36222;BME280;22266;52.340;4.962;2022-10-30T05:51:07;101636.47;;;15.11;75.48
36222;BME280;22266;52.340;4.962;2022-10-30T05:53:37;101640.00;;;15.12;75.55
36222;BME280;22266;52.340;4.962;2022-10-30T05:56:04;101636.84;;;15.08;75.26
36222;BME280;22266;52.340;4.962;2022-10-30T05:58:33;101634.34;;;15.06;75.56
36222;BME280;22266;52.340;4.962;2022-10-30T06:01:06;101630.78;;;15.06;75.42
36222;BME280;22266;52.340;4.962;2022-10-30T06:03:39;101638.94;;;15.06;75.52
36222;BME280;22266;52.340;4.962;2022-10-30T06:06:06;101641.63;;;15.06;75.43
36222;BME280;22266;52.340;4.962;2022-10-30T06:08:32;101637.03;;;15.06;75.16
36222;BME280;22266;52.340;4.962;2022-10-30T06:11:02;101649.16;;;15.04;75.35
36222;BME280;22266;52.340;4.962;2022-10-30T06:13:38;101651.88;;;15.04;75.27
36222;BME280;22266;52.340;4.962;2022-10-30T06:16:10;101660.00;;;15.04;75.25
36222;BME280;22266;52.340;4.962;2022-10-30T06:19:08;101661.88;;;15.03;75.46
36222;BME280;22266;52.340;4.962;2022-10-30T06:21:43;101663.53;;;15.04;74.99
36222;BME280;22266;52.340;4.962;2022-10-30T06:24:29;101658.34;;;15.03;75.43
36222;BME280;22266;52.340;4.962;2022-10-30T06:27:07;101658.13;;;15.04;75.35
36222;BME280;22266;52.340;4.962;2022-10-30T06:29:33;101655.41;;;15.04;75.17
36222;BME280;22266;52.340;4.962;2022-10-30T06:32:00;101661.88;;;15.03;75.31
36222;BME280;22266;52.340;4.962;2022-10-30T06:34:32;101665.59;;;15.02;75.32
36222;BME280;22266;52.340;4.962;2022-10-30T06:36:58;101668.53;;;15.01;75.02
36222;BME280;22266;52.340;4.962;2022-10-30T06:39:25;101666.88;;;15.00;75.42
36222;BME280;22266;52.340;4.962;2022-10-30T06:42:12;101670.59;;;14.99;75.58
36222;BME280;22266;52.340;4.962;2022-10-30T06:44:56;101661.84;;;14.97;75.09
36222;BME280;22266;52.340;4.962;2022-10-30T06:47:23;101665.59;;;14.96;75.55
36222;BME280;22266;52.340;4.962;2022-10-30T06:49:49;101667.47;;;14.95;75.83
36222;BME280;22266;52.340;4.962;2022-10-30T06:52:16;101676.44;;;14.96;75.80
36222;BME280;22266;52.340;4.962;2022-10-30T06:54:45;101676.03;;;14.99;75.73
36222;BME280;22266;52.340;4.962;2022-10-30T06:57:30;101675.00;;;15.00;75.58
36222;BME280;22266;52.340;4.962;2022-10-30T07:00:23;101675.00;;;15.00;75.64
36222;BME280;22266;52.340;4.962;2022-10-30T07:03:09;101677.72;;;15.00;75.56
36222;BME280;22266;52.340;4.962;2022-10-30T07:05:35;101678.34;;;15.02;75.51
36222;BME280;22266;52.340;4.962;2022-10-30T07:08:02;101681.03;;;15.02;75.54
36222;BME280;22266;52.340;4.962;2022-10-30T07:10:28;101673.31;;;14.99;75.95
36222;BME280;22266;52.340;4.962;2022-10-30T07:13:13;101670.41;;;15.00;75.56
36222;BME280;22266;52.340;4.962;2022-10-30T07:15:48;101666.66;;;15.01;75.54
36222;BME280;22266;52.340;4.962;2022-10-30T07:18:20;101663.75;;;15.03;75.86
36222;BME280;22266;52.340;4.962;2022-10-30T07:20:53;101661.22;;;15.01;75.37
36222;BME280;22266;52.340;4.962;2022-10-30T07:23:22;101663.72;;;14.96;76.05
36222;BME280;22266;52.340;4.962;2022-10-30T07:25:51;101656.03;;;15.00;76.12
36222;BME280;22266;52.340;4.962;2022-10-30T07:28:22;101660.00;;;15.04;75.90
36222;BME280;22266;52.340;4.962;2022-10-30T07:31:03;101665.84;;;15.07;76.23
36222;BME280;22266;52.340;4.962;2022-10-30T07:33:53;101656.06;;;15.13;75.90
36222;BME280;22266;52.340;4.962;2022-10-30T07:36:33;101653.78;;;15.17;75.81
36222;BME280;22266;52.340;4.962;2022-10-30T07:39:12;101658.78;;;15.20;76.12
36222;BME280;22266;52.340;4.962;2022-10-30T07:41:51;101665.03;;;15.27;76.13
36222;BME280;22266;52.340;4.962;2022-10-30T07:44:36;101671.75;;;15.31;75.81
36222;BME280;22266;52.340;4.962;2022-10-30T07:47:12;101664.66;;;15.37;75.80
36222;BME280;22266;52.340;4.962;2022-10-30T07:49:54;101664.88;;;15.42;75.54
36222;BME280;22266;52.340;4.962;2022-10-30T07:52:21;101673.88;;;15.49;75.30
36222;BME280;22266;52.340;4.962;2022-10-30T07:54:48;101672.00;;;15.56;75.20
36222;BME280;22266;52.340;4.962;2022-10-30T07:57:37;101666.38;;;15.57;75.21
36222;BME280;22266;52.340;4.962;2022-10-30T08:00:22;101664.72;;;15.56;74.89
36222;BME280;22266;52.340;4.962;2022-10-30T08:02:59;101668.88;;;15.59;74.85
36222;BME280;22266;52.340;4.962;2022-10-30T08:05:44;101673.28;;;15.60;74.69
36222;BME280;22266;52.340;4.962;2022-10-30T08:08:17;101669.50;;;15.61;74.70
36222;BME280;22266;52.340;4.962;2022-10-30T08:10:43;101671.81;;;15.64;74.60
36222;BME280;22266;52.340;4.962;2022-10-30T08:13:10;101673.28;;;15.67;74.64
36222;BME280;22266;52.340;4.962;2022-10-30T08:15:37;101674.53;;;15.71;74.59
36222;BME280;22266;52.340;4.962;2022-10-30T08:18:04;101675.19;;;15.73;74.79
36222;BME280;22266;52.340;4.962;2022-10-30T08:20:33;101670.19;;;15.76;75.02
36222;BME280;22266;52.340;4.962;2022-10-30T08:23:00;101674.16;;;15.80;74.60
36222;BME280;22266;52.340;4.962;2022-10-30T08:25:29;101689.81;;;15.85;74.56
36222;BME280;22266;52.340;4.962;2022-10-30T08:30:28;101665.16;;;15.93;74.55
36222;BME280;22266;52.340;4.962;2022-10-30T08:32:57;101682.72;;;15.97;74.59
36222;BME280;22266;52.340;4.962;2022-10-30T08:35:48;101672.47;;;15.99;74.46
36222;BME280;22266;52.340;4.962;2022-10-30T08:38:15;101682.31;;;16.00;74.44
36222;BME280;22266;52.340;4.962;2022-10-30T08:40:47;101678.31;;;16.03;74.50
36222;BME280;22266;52.340;4.962;2022-10-30T08:43:15;101686.03;;;16.06;74.51
36222;BME280;22266;52.340;4.962;2022-10-30T08:45:42;101690.22;;;16.09;74.32
36222;BME280;22266;52.340;4.962;2022-10-30T08:48:14;101679.16;;;16.10;74.18
36222;BME280;22266;52.340;4.962;2022-10-30T08:50:43;101682.69;;;16.17;74.40
36222;BME280;22266;52.340;4.962;2022-10-30T08:53:13;101689.78;;;16.18;74.04
36222;BME280;22266;52.340;4.962;2022-10-30T08:55:42;101679.34;;;16.22;74.36
36222;BME280;22266;52.340;4.962;2022-10-30T08:58:19;101678.47;;;16.28;73.92
36222;BME280;22266;52.340;4.962;2022-10-30T09:00:46;101677.66;;;16.34;74.40
36222;BME280;22266;52.340;4.962;2022-10-30T09:03:12;101667.63;;;16.41;73.84
36222;BME280;22266;52.340;4.962;2022-10-30T09:06:10;101670.53;;;16.46;73.65
36222;BME280;22266;52.340;4.962;2022-10-30T09:09:06;101666.75;;;16.47;73.62
36222;BME280;22266;52.340;4.962;2022-10-30T09:11:46;101668.41;;;16.55;73.44
36222;BME280;22266;52.340;4.962;2022-10-30T09:14:14;101669.41;;;16.61;73.51
36222;BME280;22266;52.340;4.962;2022-10-30T09:16:40;101671.53;;;16.65;73.26
36222;BME280;22266;52.340;4.962;2022-10-30T09:19:08;101676.09;;;16.71;73.50
36222;BME280;22266;52.340;4.962;2022-10-30T09:21:41;101683.44;;;16.77;73.55
36222;BME280;22266;52.340;4.962;2022-10-30T09:24:07;101693.44;;;16.77;72.84
36222;BME280;22266;52.340;4.962;2022-10-30T09:26:34;101689.88;;;16.76;73.18
36222;BME280;22266;52.340;4.962;2022-10-30T09:29:21;101688.63;;;16.79;72.83
36222;BME280;22266;52.340;4.962;2022-10-30T09:32:02;101684.03;;;16.73;72.96
36222;BME280;22266;52.340;4.962;2022-10-30T09:34:31;101689.06;;;16.69;72.93
36222;BME280;22266;52.340;4.962;2022-10-30T09:37:05;101692.22;;;16.66;72.59
36222;BME280;22266;52.340;4.962;2022-10-30T09:39:35;101693.69;;;16.62;72.76
36222;BME280;22266;52.340;4.962;2022-10-30T09:42:20;101688.44;;;16.61;72.79
36222;BME280;22266;52.340;4.962;2022-10-30T09:48:01;101694.53;;;16.63;73.29
36222;BME280;22266;52.340;4.962;2022-10-30T09:50:54;101691.97;;;16.68;73.20
36222;BME280;22266;52.340;4.962;2022-10-30T09:56:43;101695.56;;;16.75;73.29
36222;BME280;22266;52.340;4.962;2022-10-30T09:59:27;101694.06;;;16.72;73.19
36222;BME280;22266;52.340;4.962;2022-10-30T10:02:08;101693.06;;;16.73;73.57
36222;BME280;22266;52.340;4.962;2022-10-30T10:04:43;101694.72;;;16.74;73.64
36222;BME280;22266;52.340;4.962;2022-10-30T10:07:27;101689.47;;;16.79;73.44
36222;BME280;22266;52.340;4.962;2022-10-30T10:10:38;101682.13;;;16.87;73.33
36222;BME280;22266;52.340;4.962;2022-10-30T10:13:37;101688.81;;;16.91;73.50
36222;BME280;22266;52.340;4.962;2022-10-30T10:16:20;101684.81;;;16.93;73.19
36222;BME280;22266;52.340;4.962;2022-10-30T10:18:56;101677.88;;;16.97;73.50
36222;BME280;22266;52.340;4.962;2022-10-30T10:21:28;101682.91;;;17.00;73.45
36222;BME280;22266;52.340;4.962;2022-10-30T10:23:58;101692.13;;;16.99;73.03
36222;BME280;22266;52.340;4.962;2022-10-30T10:26:28;101681.63;;;17.03;73.32
36222;BME280;22266;52.340;4.962;2022-10-30T10:28:59;101681.22;;;17.06;72.98
36222;BME280;22266;52.340;4.962;2022-10-30T10:40:37;101670.59;;;17.29;72.84
36222;BME280;22266;52.340;4.962;2022-10-30T10:46:14;101675.34;;;17.41;72.82
36222;BME280;22266;52.340;4.962;2022-10-30T10:49:24;101678.47;;;17.44;72.58
36222;BME280;22266;52.340;4.962;2022-10-30T10:52:06;101671.75;;;17.47;72.69
36222;BME280;22266;52.340;4.962;2022-10-30T10:54:48;101673.00;;;17.51;72.42
36222;BME280;22266;52.340;4.962;2022-10-30T10:59:52;101672.50;;;17.61;72.79
36222;BME280;22266;52.340;4.962;2022-10-30T11:02:38;101670.16;;;17.64;72.60
36222;BME280;22266;52.340;4.962;2022-10-30T11:05:23;101664.06;;;17.69;72.44
36222;BME280;22266;52.340;4.962;2022-10-30T11:07:52;101656.03;;;17.74;72.40
36222;BME280;22266;52.340;4.962;2022-10-30T11:10:22;101655.88;;;17.75;72.16
36222;BME280;22266;52.340;4.962;2022-10-30T11:12:51;101649.38;;;17.76;72.27
36222;BME280;22266;52.340;4.962;2022-10-30T11:15:29;101658.16;;;17.78;72.17
36222;BME280;22266;52.340;4.962;2022-10-30T11:18:04;101653.94;;;17.83;72.21
36222;BME280;22266;52.340;4.962;2022-10-30T11:20:54;101655.38;;;17.85;72.11
36222;BME280;22266;52.340;4.962;2022-10-30T11:23:33;101647.59;;;17.89;72.18
36222;BME280;22266;52.340;4.962;2022-10-30T11:26:04;101651.56;;;17.86;71.88
36222;BME280;22266;52.340;4.962;2022-10-30T11:28:49;101646.53;;;17.90;72.11
36222;BME280;22266;52.340;4.962;2022-10-30T11:33:49;101634.91;;;18.01;71.92
36222;BME280;22266;52.340;4.962;2022-10-30T11:36:21;101640.88;;;18.10;72.01
36222;BME280;22266;52.340;4.962;2022-10-30T11:38:48;101636.66;;;18.14;72.00
36222;BME280;22266;52.340;4.962;2022-10-30T11:41:15;101632.03;;;18.14;71.96
36222;BME280;22266;52.340;4.962;2022-10-30T11:43:42;101636.59;;;18.20;71.81
36222;BME280;22266;52.340;4.962;2022-10-30T11:46:13;101630.91;;;18.22;71.89
36222;BME280;22266;52.340;4.962;2022-10-30T11:48:43;101640.31;;;18.26;71.80
36222;BME280;22266;52.340;4.962;2022-10-30T11:51:11;101642.19;;;18.25;71.95
36222;BME280;22266;52.340;4.962;2022-10-30T11:53:42;101636.75;;;18.25;72.10
36222;BME280;22266;52.340;4.962;2022-10-30T11:56:20;101638.66;;;18.25;72.14
36222;BME280;22266;52.340;4.962;2022-10-30T11:58:50;101634.25;;;18.24;72.00
36222;BME280;22266;52.340;4.962;2022-10-30T12:01:21;101632.56;;;18.23;72.21
36222;BME280;22266;52.340;4.962;2022-10-30T12:03:49;101626.28;;;18.22;72.31
36222;BME280;22266;52.340;4.962;2022-10-30T12:06:26;101625.25;;;18.23;72.77
36222;BME280;22266;52.340;4.962;2022-10-30T12:09:22;101626.09;;;18.24;71.96
36222;BME280;22266;52.340;4.962;2022-10-30T12:11:49;101623.94;;;18.26;72.31
36222;BME280;22266;52.340;4.962;2022-10-30T12:14:20;101621.22;;;18.26;72.09
36222;BME280;22266;52.340;4.962;2022-10-30T12:16:49;101613.06;;;18.26;72.44
36222;BME280;22266;52.340;4.962;2022-10-30T12:19:19;101608.22;;;18.28;72.22
36222;BME280;22266;52.340;4.962;2022-10-30T12:21:48;101610.94;;;18.28;72.11
36222;BME280;22266;52.340;4.962;2022-10-30T12:24:21;101608.81;;;18.30;72.17
36222;BME280;22266;52.340;4.962;2022-10-30T12:26:51;101612.38;;;18.31;71.79
36222;BME280;22266;52.340;4.962;2022-10-30T12:29:24;101610.25;;;18.33;71.86
36222;BME280;22266;52.340;4.962;2022-10-30T12:32:17;101615.25;;;18.36;71.46
36222;BME280;22266;52.340;4.962;2022-10-30T12:34:56;101608.50;;;18.38;71.69
36222;BME280;22266;52.340;4.962;2022-10-30T12:37:37;101610.78;;;18.41;71.27
36222;BME280;22266;52.340;4.962;2022-10-30T12:40:15;101618.72;;;18.43;71.45
36222;BME280;22266;52.340;4.962;2022-10-30T12:43:08;101614.34;;;18.42;71.26
36222;BME280;22266;52.340;4.962;2022-10-30T12:45:47;101612.44;;;18.42;71.43
36222;BME280;22266;52.340;4.962;2022-10-30T12:48:20;101604.88;;;18.44;71.38
36222;BME280;22266;52.340;4.962;2022-10-30T12:50:56;101611.75;;;18.47;71.51
36222;BME280;22266;52.340;4.962;2022-10-30T12:56:19;101608.69;;;18.43;71.10
36222;BME280;22266;52.340;4.962;2022-10-30T13:01:39;101608.44;;;18.45;71.39
36222;BME280;22266;52.340;4.962;2022-10-30T13:04:16;101609.88;;;18.47;71.75
36222;BME280;22266;52.340;4.962;2022-10-30T13:06:52;101596.03;;;18.49;71.91
36222;BME280;22266;52.340;4.962;2022-10-30T13:12:17;101584.72;;;18.45;72.10
36222;BME280;22266;52.340;4.962;2022-10-30T13:14:59;101592.53;;;18.42;72.21
36222;BME280;22266;52.340;4.962;2022-10-30T13:17:28;101593.34;;;18.42;72.36
36222;BME280;22266;52.340;4.962;2022-10-30T13:19:55;101599.88;;;18.41;72.38
36222;BME280;22266;52.340;4.962;2022-10-30T13:22:26;101602.38;;;18.43;72.60
36222;BME280;22266;52.340;4.962;2022-10-30T13:27:52;101580.81;;;18.41;72.27
36222;BME280;22266;52.340;4.962;2022-10-30T13:30:21;101586.88;;;18.43;72.13
36222;BME280;22266;52.340;4.962;2022-10-30T13:33:14;101588.75;;;18.43;72.38
36222;BME280;22266;52.340;4.962;2022-10-30T13:35:58;101587.06;;;18.42;72.23
36222;BME280;22266;52.340;4.962;2022-10-30T13:41:37;101576.88;;;18.37;71.99
36222;BME280;22266;52.340;4.962;2022-10-30T13:47:17;101586.25;;;18.41;72.34
36222;BME280;22266;52.340;4.962;2022-10-30T13:50:08;101590.88;;;18.41;72.44
36222;BME280;22266;52.340;4.962;2022-10-30T13:52:47;101587.31;;;18.40;72.30
36222;BME280;22266;52.340;4.962;2022-10-30T13:55:23;101586.69;;;18.38;72.52
36222;BME280;22266;52.340;4.962;2022-10-30T13:58:03;101587.53;;;18.39;72.39
36222;BME280;22266;52.340;4.962;2022-10-30T14:00:58;101580.81;;;18.41;72.50
36222;BME280;22266;52.340;4.962;2022-10-30T14:06:30;101565.06;;;18.43;72.35
36222;BME280;22266;52.340;4.962;2022-10-30T14:11:44;101543.16;;;18.50;72.30
36222;BME280;22266;52.340;4.962;2022-10-30T14:14:29;101543.97;;;18.50;72.13
36222;BME280;22266;52.340;4.962;2022-10-30T14:22:39;101568.91;;;18.54;72.13
36222;BME280;22266;52.340;4.962;2022-10-30T14:25:14;101574.34;;;18.54;72.03